Time;durP1;ratioP1;P1;durP2;ratioP2;P2;SDS_P1;SDS_P2;PMS_P1;PMS_P2;Temp;Humidity;BMP_temperature;BMP_pressure;BME280_temperature;BME280_humidity;BME280_pressure;Samples;Min_cycle;Max_cycle;Signal;HPM_P1;HPM_P2
2023/03/22 00:01:13;;;;;;;17.77;7.47;;;;;;;10.99;82.24;100632.56;5073611;28;20053;-53
2023/03/22 00:03:40;;;;;;;17.75;7.22;;;;;;;10.99;82.66;100624.59;5070715;28;20395;-54
2023/03/22 00:06:07;;;;;;;18.65;8.02;;;;;;;10.94;82.75;100628.59;5073630;28;20139;-53
2023/03/22 00:08:35;;;;;;;16.08;8.10;;;;;;;10.92;82.96;100622.59;5069187;28;20401;-54
2023/03/22 00:11:02;;;;;;;16.33;7.20;;;;;;;10.91;82.72;100628.91;5074936;28;20052;-53
2023/03/22 00:13:30;;;;;;;16.52;7.63;;;;;;;11.00;82.43;100623.63;5069079;28;20053;-54
2023/03/22 00:15:58;;;;;;;16.30;7.95;;;;;;;10.91;82.81;100620.97;5074015;28;20071;-54
2023/03/22 00:18:25;;;;;;;17.00;7.50;;;;;;;10.85;83.29;100620.75;5069932;28;20102;-54
2023/03/22 00:20:54;;;;;;;17.20;7.75;;;;;;;10.84;83.33;100616.41;5073856;28;20453;-53
2023/03/22 00:23:22;;;;;;;14.60;7.85;;;;;;;10.87;83.52;100618.78;5069910;28;20525;-54
2023/03/22 00:25:51;;;;;;;17.40;8.57;;;;;;;10.84;83.23;100611.97;5072303;28;20052;-53
2023/03/22 00:28:19;;;;;;;15.98;7.93;;;;;;;10.79;83.24;100614.25;5066213;28;20391;-53
2023/03/22 00:30:57;;;;;;;15.52;7.68;;;;;;;10.74;83.87;100605.94;5053255;28;20391;-52
2023/03/22 00:33:26;;;;;;;19.00;8.48;;;;;;;10.81;83.31;100606.97;5049000;28;20045;-53
2023/03/22 00:35:58;;;;;;;22.48;8.65;;;;;;;10.73;84.14;100597.16;5053504;28;20441;-53
2023/03/22 00:38:32;;;;;;;20.90;8.75;;;;;;;10.76;84.26;100596.81;5049844;28;20502;-54
2023/03/22 00:41:18;;;;;;;20.98;8.50;;;;;;;10.80;83.87;100594.69;5053092;28;20132;-53
2023/03/22 00:43:47;;;;;;;18.20;8.00;;;;;;;10.70;84.72;100594.00;5051112;28;20071;-52
2023/03/22 00:46:15;;;;;;;18.80;8.75;;;;;;;10.64;85.27;100584.84;5073985;28;20044;-53
2023/03/22 00:48:42;;;;;;;18.88;8.20;;;;;;;10.67;85.91;100587.16;5068919;28;20123;-54
2023/03/22 00:51:10;;;;;;;22.20;9.38;;;;;;;10.64;85.87;100584.84;5072926;28;20052;-53
2023/03/22 00:53:38;;;;;;;17.98;8.80;;;;;;;10.64;86.00;100579.53;5069171;28;20052;-53
2023/03/22 00:56:09;;;;;;;24.98;9.05;;;;;;;10.53;86.39;100569.19;5072890;28;20324;-54
2023/03/22 00:58:43;;;;;;;19.98;9.23;;;;;;;10.51;85.93;100568.50;5068327;28;20059;-54
2023/03/22 01:01:12;;;;;;;20.77;9.18;;;;;;;10.57;86.27;100567.91;5072559;28;20052;-54
2023/03/22 01:03:41;;;;;;;21.60;9.13;;;;;;;10.49;86.65;100568.66;5068561;28;20052;-54
2023/03/22 01:06:10;;;;;;;19.80;9.35;;;;;;;10.46;86.68;100566.34;5073494;28;20521;-54
2023/03/22 01:08:37;;;;;;;22.95;9.88;;;;;;;10.45;86.76;100561.19;5053221;28;20095;-54
2023/03/22 01:11:06;;;;;;;23.92;10.20;;;;;;;10.42;86.99;100556.19;5072427;28;20401;-54
2023/03/22 01:13:36;;;;;;;24.35;9.95;;;;;;;10.41;86.90;100558.03;5069452;28;20055;-54
2023/03/22 01:16:04;;;;;;;19.80;9.68;;;;;;;10.38;87.42;100558.31;5052375;28;20052;-53
2023/03/22 01:18:32;;;;;;;21.95;10.38;;;;;;;10.34;87.72;100560.47;5048335;28;20045;-54
2023/03/22 01:20:59;;;;;;;23.92;11.15;;;;;;;10.29;88.21;100549.47;5053608;28;20044;-53
2023/03/22 01:23:27;;;;;;;20.88;10.43;;;;;;;10.24;88.03;100546.47;5048644;28;20115;-54
2023/03/22 01:25:53;;;;;;;20.33;11.10;;;;;;;10.15;88.42;100544.72;5051883;28;20068;-54
2023/03/22 01:28:20;;;;;;;21.60;11.05;;;;;;;10.01;89.00;100547.97;5052336;28;20042;-54
2023/03/22 01:30:47;;;;;;;23.33;11.15;;;;;;;10.03;89.11;100543.34;5073402;28;20048;-52
2023/03/22 01:33:14;;;;;;;23.15;10.38;;;;;;;9.92;89.59;100536.47;5067312;28;20557;-54
2023/03/22 01:35:40;;;;;;;21.95;10.63;;;;;;;9.90;89.56;100533.16;5072730;28;20044;-54
2023/03/22 01:38:08;;;;;;;21.88;10.68;;;;;;;9.86;89.66;100527.34;5068560;28;20051;-54
2023/03/22 01:40:41;;;;;;;20.60;10.73;;;;;;;9.86;89.89;100529.13;5071940;28;20488;-54
2023/03/22 01:43:12;;;;;;;21.58;10.60;;;;;;;9.83;89.97;100526.81;5064652;28;20048;-52
2023/03/22 01:45:42;;;;;;;20.92;10.00;;;;;;;9.79;90.23;100519.16;5073055;28;20052;-54
2023/03/22 01:48:20;;;;;;;19.20;9.82;;;;;;;9.76;90.43;100511.50;5071080;28;20081;-54
2023/03/22 01:51:09;;;;;;;22.70;11.00;;;;;;;9.75;90.63;100509.00;5071576;28;20044;-53
2023/03/22 01:53:49;;;;;;;20.83;10.73;;;;;;;9.72;90.93;100507.50;5068133;28;20047;-54
2023/03/22 01:56:20;;;;;;;18.17;10.82;;;;;;;9.68;91.06;100505.31;5072547;28;20079;-54
2023/03/22 01:58:48;;;;;;;21.02;11.25;;;;;;;9.63;91.38;100503.16;5067966;28;20456;-54
2023/03/22 02:01:19;;;;;;;25.58;11.45;;;;;;;9.61;91.52;100494.53;5071647;28;20083;-53
2023/03/22 02:03:57;;;;;;;22.55;11.35;;;;;;;9.58;91.61;100498.28;5068361;28;20118;-53
2023/03/22 02:06:28;;;;;;;22.13;11.18;;;;;;;9.52;91.76;100498.91;5072809;28;20110;-53
2023/03/22 02:09:05;;;;;;;25.67;11.23;;;;;;;9.47;91.91;100493.25;5067161;28;20044;-54
2023/03/22 02:11:37;;;;;;;23.33;11.20;;;;;;;9.47;92.26;100489.78;5073140;28;20055;-54
2023/03/22 02:14:30;;;;;;;23.83;10.50;;;;;;;9.49;92.21;100488.63;5068215;28;20040;-52
2023/03/22 02:17:41;;;;;;;23.95;11.35;;;;;;;9.50;92.69;100484.19;5071195;28;20626;-54
2023/03/22 02:20:42;;;;;;;21.33;11.13;;;;;;;9.47;92.83;100482.66;5068500;28;20052;-53
2023/03/22 02:23:45;;;;;;;21.40;11.15;;;;;;;9.43;93.13;100486.59;5070387;28;20041;-54
2023/03/22 02:26:52;;;;;;;23.52;12.18;;;;;;;9.47;93.19;100474.72;5071728;28;20044;-54
2023/03/22 02:29:44;;;;;;;22.80;11.25;;;;;;;9.45;93.35;100474.03;5056740;28;20187;-54
2023/03/22 02:32:51;;;;;;;27.02;12.75;;;;;;;9.39;93.43;100464.06;5051437;28;20041;-54
2023/03/22 02:38:30;;;;;;;20.05;12.00;;;;;;;9.36;93.74;100453.78;5114876;28;20882;-53
2023/03/22 02:41:21;;;;;;;24.92;11.68;;;;;;;9.33;94.01;100451.41;5110492;28;20047;-53
2023/03/22 02:44:22;;;;;;;26.23;12.63;;;;;;;9.25;93.87;100449.53;5100402;28;20486;-54
2023/03/22 02:47:02;;;;;;;25.17;12.70;;;;;;;9.27;94.06;100444.94;5089458;28;20051;-52
2023/03/22 02:49:37;;;;;;;26.23;12.10;;;;;;;9.27;94.29;100442.28;5086025;28;20222;-52
2023/03/22 02:52:31;;;;;;;24.17;11.95;;;;;;;9.21;94.21;100449.03;5089584;28;20066;-53
2023/03/22 02:58:01;;;;;;;24.85;12.25;;;;;;;9.21;94.29;100440.25;5111049;27;20358;-53
2023/03/22 03:00:32;;;;;;;27.73;12.45;;;;;;;9.18;94.47;100444.03;5104757;28;20712;-51
2023/03/22 03:03:10;;;;;;;21.88;11.75;;;;;;;9.15;94.44;100432.91;5110660;28;20134;-52
2023/03/22 03:05:42;;;;;;;25.20;12.05;;;;;;;9.16;95.06;100434.59;5106316;28;20093;-53
2023/03/22 03:08:09;;;;;;;;;;;;;;;9.13;95.05;100440.16;5108813;28;20047;-53
2023/03/22 03:10:40;;;;;;;26.70;12.45;;;;;;;9.10;95.55;100430.72;5104031;28;19924;-53
2023/03/22 03:13:12;;;;;;;28.25;13.73;;;;;;;9.12;95.72;100438.53;5110367;28;20083;-53
2023/03/22 03:15:42;;;;;;;24.63;11.85;;;;;;;9.13;95.37;100435.72;5104268;28;20478;-53
2023/03/22 03:18:25;;;;;;;24.30;12.35;;;;;;;9.13;95.75;100435.72;5110143;28;20047;-53
2023/03/22 03:21:02;;;;;;;30.70;13.48;;;;;;;9.02;96.32;100441.22;5106136;28;20044;-53
2023/03/22 03:24:06;;;;;;;23.65;12.55;;;;;;;9.05;96.29;100426.88;5109531;28;20370;-53
2023/03/22 03:26:59;;;;;;;26.77;13.80;;;;;;;9.07;96.04;100425.72;5107995;28;20062;-53
2023/03/22 03:29:37;;;;;;;30.92;15.32;;;;;;;9.03;96.32;100432.31;5105430;28;20555;-52
2023/03/22 03:35:04;;;;;;;29.58;14.93;;;;;;;8.99;96.96;100425.69;5105729;27;20384;-53
2023/03/22 03:37:40;;;;;;;28.52;15.13;;;;;;;8.99;96.70;100425.69;5109863;28;20036;-53
2023/03/22 03:40:15;;;;;;;38.63;16.60;;;;;;;9.08;96.40;100419.47;5106689;28;20040;-53
2023/03/22 03:42:47;;;;;;;27.73;14.98;;;;;;;9.03;96.91;100413.81;5110148;28;20501;-53
2023/03/22 03:45:17;;;;;;;30.40;15.50;;;;;;;9.08;97.24;100415.97;5102292;28;20508;-53
2023/03/22 03:47:45;;;;;;;28.30;14.40;;;;;;;9.05;97.48;100419.78;5110686;28;20107;-53
2023/03/22 03:50:15;;;;;;;27.10;13.55;;;;;;;9.13;97.19;100411.06;5110373;28;20044;-53
2023/03/22 03:52:42;;;;;;;27.05;12.50;;;;;;;9.19;96.63;100413.13;5104959;28;20043;-53
2023/03/22 03:55:08;;;;;;;33.70;13.45;;;;;;;9.27;95.87;100418.47;5110836;28;20077;-53
2023/03/22 03:57:35;;;;;;;27.38;12.93;;;;;;;9.22;96.41;100416.28;5105606;28;20471;-53
2023/03/22 04:00:03;;;;;;;28.20;12.27;;;;;;;9.15;96.70;100425.81;5108921;28;20497;-52
2023/03/22 04:02:51;;;;;;;25.88;11.35;;;;;;;9.21;96.03;100422.56;5106660;28;20063;-52
2023/03/22 04:05:35;;;;;;;26.40;11.80;;;;;;;9.21;96.86;100424.38;5106865;28;20052;-52
2023/03/22 04:08:04;;;;;;;22.02;12.38;;;;;;;9.15;96.60;100433.75;5108693;28;20035;-53
2023/03/22 04:10:32;;;;;;;26.60;11.93;;;;;;;9.23;96.61;100428.53;5107845;28;20485;-54
2023/03/22 04:12:59;;;;;;;28.73;12.10;;;;;;;9.28;95.79;100424.56;5108708;28;20036;-54
2023/03/22 04:15:25;;;;;;;23.42;11.48;;;;;;;9.26;95.53;100431.84;5107965;28;20093;-53
2023/03/22 04:17:56;;;;;;;25.25;11.43;;;;;;;9.23;96.13;100420.56;5106109;28;20050;-54
2023/03/22 04:20:25;;;;;;;26.45;11.52;;;;;;;9.26;96.32;100422.09;5108013;28;20104;-54
2023/03/22 04:22:56;;;;;;;25.77;12.05;;;;;;;9.22;96.50;100416.28;5108385;28;20044;-53
2023/03/22 04:25:29;;;;;;;26.83;11.88;;;;;;;9.22;96.32;100428.66;5108201;28;20052;-53
2023/03/22 04:28:03;;;;;;;22.50;11.40;;;;;;;9.28;95.71;100422.78;5108004;28;20044;-53
2023/03/22 04:30:34;;;;;;;23.77;11.73;;;;;;;9.25;95.37;100415.13;5087029;28;20055;-53
2023/03/22 04:33:21;;;;;;;21.65;10.88;;;;;;;9.25;95.68;100417.78;5088443;28;20172;-52
2023/03/22 04:36:09;;;;;;;24.10;11.65;;;;;;;9.27;95.34;100409.69;5084134;28;20044;-53
2023/03/22 04:38:49;;;;;;;22.80;11.40;;;;;;;9.29;95.52;100408.53;5089620;28;20048;-53
2023/03/22 04:41:20;;;;;;;;;;;;;;;9.24;95.32;100397.63;5084890;28;20036;-53
2023/03/22 04:43:50;;;;;;;26.48;11.73;;;;;;;9.15;95.49;100402.00;5090898;28;20266;-53
2023/03/22 04:46:20;;;;;;;26.33;12.80;;;;;;;9.23;94.71;100402.06;5090778;28;20044;-54
2023/03/22 04:48:53;;;;;;;27.80;13.40;;;;;;;9.22;95.88;100400.41;5096066;28;20052;-54
2023/03/22 04:51:21;;;;;;;25.75;13.00;;;;;;;9.34;94.78;100402.81;5094603;28;20087;-54
2023/03/22 04:54:07;;;;;;;32.75;13.52;;;;;;;9.27;95.05;100404.41;5093349;28;20489;-54
2023/03/22 04:56:40;;;;;;;26.70;13.48;;;;;;;9.22;95.53;100400.41;5092875;28;20040;-54
2023/03/22 04:59:09;;;;;;;29.13;13.52;;;;;;;9.26;95.14;100403.59;5093229;28;20040;-51
2023/03/22 05:01:36;;;;;;;30.02;13.48;;;;;;;9.28;94.82;100406.03;5093664;28;20073;-54
2023/03/22 05:04:10;;;;;;;27.00;13.93;;;;;;;9.35;94.95;100404.44;5094634;28;20044;-54
2023/03/22 05:06:39;;;;;;;28.63;12.88;;;;;;;9.40;95.02;100408.31;5092599;28;20048;-54
2023/03/22 05:09:14;;;;;;;28.02;13.00;;;;;;;9.52;93.97;100405.41;5093928;28;20036;-53
2023/03/22 05:11:41;;;;;;;29.42;13.98;;;;;;;9.53;94.26;100397.31;5111882;28;20046;-54
2023/03/22 05:14:28;;;;;;;35.90;15.10;;;;;;;9.55;94.35;100391.84;5107720;28;20044;-54
2023/03/22 05:16:55;;;;;;;29.83;14.18;;;;;;;9.55;93.99;100398.00;5089754;28;20040;-54
2023/03/22 05:19:23;;;;;;;28.73;14.15;;;;;;;9.56;94.12;100396.16;5094819;28;20055;-53
2023/03/22 05:21:56;;;;;;;28.52;14.15;;;;;;;9.54;94.14;100404.25;5090648;28;20063;-54
2023/03/22 05:24:30;;;;;;;31.55;14.43;;;;;;;9.41;94.33;100399.38;5094287;28;20413;-54
2023/03/22 05:26:59;;;;;;;28.42;12.88;;;;;;;9.58;94.25;100407.44;5089405;28;20050;-54
2023/03/22 05:29:27;;;;;;;26.58;12.05;;;;;;;9.56;94.06;100398.81;5095510;28;20050;-54
2023/03/22 05:32:03;;;;;;;23.25;10.52;;;;;;;9.65;93.74;100408.47;5090365;28;20072;-54
2023/03/22 05:34:34;;;;;;;23.33;10.32;;;;;;;9.67;93.53;100403.84;5093597;28;20071;-54
2023/03/22 05:37:10;;;;;;;24.42;10.55;;;;;;;9.72;93.18;100406.03;5090602;28;20260;-54
2023/03/22 05:39:46;;;;;;;25.88;10.23;;;;;;;9.72;92.80;100406.84;5094731;28;20047;-53
2023/03/22 05:42:14;;;;;;;25.77;11.25;;;;;;;9.77;92.69;100407.22;5089232;28;20048;-54
2023/03/22 05:44:43;;;;;;;21.90;10.35;;;;;;;9.80;92.88;100408.72;5095061;28;20072;-55
2023/03/22 05:47:11;;;;;;;23.77;10.80;;;;;;;9.82;93.09;100404.09;5089897;28;20051;-54
2023/03/22 05:49:48;;;;;;;25.98;10.07;;;;;;;9.89;92.57;100413.06;5093821;28;20095;-54
2023/03/22 05:52:16;;;;;;;23.25;10.10;;;;;;;9.86;91.91;100404.59;5094967;28;20044;-55
2023/03/22 05:55:02;;;;;;;20.60;10.20;;;;;;;9.92;92.23;100402.16;5092096;28;20043;-54
2023/03/22 05:57:30;;;;;;;28.40;11.25;;;;;;;9.89;92.33;100404.31;5091304;28;20409;-56
2023/03/22 05:59:57;;;;;;;22.38;11.07;;;;;;;9.97;92.27;100409.66;5091298;28;20390;-55
2023/03/22 06:02:51;;;;;;;25.75;11.15;;;;;;;9.98;92.27;100409.47;5105567;27;20372;-54
2023/03/22 06:05:19;;;;;;;24.73;11.02;;;;;;;10.03;91.90;100402.88;5110694;28;20043;-53
2023/03/22 06:07:48;;;;;;;26.65;11.00;;;;;;;10.10;91.69;100399.44;5105433;28;20040;-53
2023/03/22 06:10:17;;;;;;;28.52;11.48;;;;;;;10.08;91.31;100401.41;5110190;28;20048;-53
2023/03/22 06:12:44;;;;;;;31.08;11.52;;;;;;;10.09;91.54;100412.84;5106160;28;20032;-53
2023/03/22 06:15:21;;;;;;;29.90;12.02;;;;;;;10.11;91.19;100416.97;5109860;28;20047;-53
2023/03/22 06:17:57;;;;;;;30.52;13.10;;;;;;;10.09;91.80;100418.16;5105176;28;20043;-54
2023/03/22 06:20:28;;;;;;;36.78;15.40;;;;;;;10.21;90.61;100418.72;5109661;28;20093;-54
2023/03/22 06:23:01;;;;;;;33.85;15.50;;;;;;;10.18;90.47;100420.66;5088787;28;20048;-54
2023/03/22 06:25:28;;;;;;;31.20;14.80;;;;;;;10.23;90.52;100422.84;5108091;28;20497;-54
2023/03/22 06:27:55;;;;;;;31.40;14.73;;;;;;;10.23;90.51;100422.84;5104611;28;20445;-55
2023/03/22 06:30:24;;;;;;;33.17;14.55;;;;;;;10.25;90.48;100417.38;5105749;28;20050;-54
2023/03/22 06:33:11;;;;;;;33.38;12.85;;;;;;;10.26;90.33;100419.88;5097105;28;20059;-53
2023/03/22 06:35:42;;;;;;;33.53;13.45;;;;;;;10.19;90.44;100410.91;5089749;28;20053;-55
2023/03/22 06:38:13;;;;;;;31.83;13.68;;;;;;;10.19;90.24;100413.56;5084577;28;20051;-52
2023/03/22 06:40:40;;;;;;;24.85;12.40;;;;;;;10.28;90.29;100403.81;5088479;28;20485;-54
2023/03/22 06:43:08;;;;;;;26.05;12.73;;;;;;;10.36;90.73;100401.22;5085116;28;20051;-52
2023/03/22 06:45:37;;;;;;;29.83;12.68;;;;;;;10.29;90.02;100401.00;5106795;28;20039;-53
2023/03/22 06:48:06;;;;;;;26.55;13.13;;;;;;;10.45;88.80;100407.38;5102439;28;20465;-55
2023/03/22 06:50:47;;;;;;;33.65;12.80;;;;;;;10.49;88.47;100406.88;5105748;28;20076;-55
2023/03/22 06:53:26;;;;;;;30.55;13.18;;;;;;;10.55;88.51;100400.94;5109380;28;20051;-57
2023/03/22 06:55:53;;;;;;;28.50;12.25;;;;;;;10.46;88.53;100395.75;5104114;28;20492;-54
2023/03/22 06:58:22;;;;;;;34.25;11.57;;;;;;;10.62;88.04;100402.94;5108865;28;20044;-55
2023/03/22 07:00:49;;;;;;;25.45;10.40;;;;;;;10.61;88.16;100391.50;5103815;28;20400;-53
2023/03/22 07:03:18;;;;;;;30.30;10.68;;;;;;;10.67;87.86;100403.28;5109001;28;20097;-54
2023/03/22 07:05:49;;;;;;;23.98;10.00;;;;;;;10.73;86.78;100398.16;5095871;28;20513;-53
2023/03/22 07:08:17;;;;;;;30.48;9.13;;;;;;;10.73;86.56;100399.97;5108383;28;20067;-54
2023/03/22 07:10:50;;;;;;;24.92;8.52;;;;;;;10.83;86.18;100397.19;5082160;28;20044;-52
2023/03/22 07:13:19;;;;;;;24.85;7.90;;;;;;;10.88;85.54;100382.44;5099970;28;20169;-51
2023/03/22 07:15:48;;;;;;;19.23;6.43;;;;;;;10.91;84.06;100386.56;5089954;28;20040;-52
2023/03/22 07:18:29;;;;;;;18.35;5.68;;;;;;;11.05;83.14;100383.25;5096014;28;20079;-52
2023/03/22 07:20:56;;;;;;;21.27;5.85;;;;;;;11.00;83.17;100382.91;5091373;28;20067;-50
2023/03/22 07:23:23;;;;;;;16.38;5.60;;;;;;;11.00;83.28;100390.06;5094753;28;20036;-51
2023/03/22 07:25:54;;;;;;;19.05;5.75;;;;;;;11.13;83.11;100383.28;5090462;28;20050;-50
2023/03/22 07:28:26;;;;;;;14.80;4.70;;;;;;;11.25;81.96;100391.72;5094453;28;20044;-51
2023/03/22 07:31:04;;;;;;;21.75;5.60;;;;;;;11.42;81.95;100383.72;5090726;28;20490;-48
2023/03/22 07:33:43;;;;;;;20.33;5.60;;;;;;;11.46;82.43;100379.72;5094564;28;20048;-50
2023/03/22 07:36:10;;;;;;;19.88;6.30;;;;;;;11.50;80.75;100379.25;5090965;28;20392;-49
2023/03/22 07:38:39;;;;;;;16.33;5.93;;;;;;;11.52;80.39;100376.41;5094473;28;20588;-52
2023/03/22 07:41:10;;;;;;;18.98;5.40;;;;;;;11.54;81.71;100382.38;5090854;28;20043;-50
2023/03/22 07:43:51;;;;;;;21.30;5.60;;;;;;;11.57;79.90;100384.72;5092194;28;20048;-51
2023/03/22 07:46:24;;;;;;;24.13;6.18;;;;;;;11.45;81.55;100378.91;5088524;28;20440;-52
2023/03/22 07:49:10;;;;;;;20.17;5.10;;;;;;;11.58;79.93;100377.56;5071476;28;20446;-47
2023/03/22 07:51:58;;;;;;;17.50;5.18;;;;;;;11.58;80.52;100377.56;5091034;28;20086;-47
2023/03/22 07:54:26;;;;;;;14.15;4.43;;;;;;;11.52;79.22;100381.72;5075154;28;20536;-46
2023/03/22 07:57:02;;;;;;;17.80;4.72;;;;;;;11.58;79.43;100385.53;5077367;28;20051;-48
2023/03/22 07:59:31;;;;;;;16.42;4.93;;;;;;;11.46;79.56;100388.56;5102052;28;20075;-46
2023/03/22 08:01:58;;;;;;;94.70;38.55;;;;;;;11.47;78.83;100386.72;5093280;28;20126;-46
2023/03/22 08:04:30;;;;;;;16.80;4.95;;;;;;;11.50;78.87;100389.03;5110730;28;20098;-47
2023/03/22 08:07:17;;;;;;;20.55;4.60;;;;;;;11.42;79.09;100397.84;5099379;28;20057;-51
2023/03/22 08:09:46;;;;;;;18.80;4.60;;;;;;;11.41;78.84;100403.34;5094993;28;20047;-52
2023/03/22 08:12:13;;;;;;;20.15;4.28;;;;;;;11.45;78.48;100396.69;5093374;28;20043;-51
2023/03/22 08:14:41;;;;;;;15.00;3.15;;;;;;;11.38;77.44;100395.69;5102285;28;20198;-52
2023/03/22 08:17:17;;;;;;;12.50;3.10;;;;;;;11.47;75.53;100400.81;5092645;28;20044;-55
2023/03/22 08:19:45;;;;;;;12.23;2.60;;;;;;;11.38;75.27;100401.00;5092756;28;20036;-51
2023/03/22 08:22:22;;;;;;;12.27;2.75;;;;;;;11.51;75.71;100396.00;5100055;28;20104;-52
2023/03/22 08:25:09;;;;;;;12.70;2.35;;;;;;;11.58;73.58;100398.81;5085517;28;20998;-51
2023/03/22 08:27:38;;;;;;;8.05;2.00;;;;;;;11.64;72.95;100400.78;5096479;28;20051;-52
2023/03/22 08:30:06;;;;;;;9.98;1.77;;;;;;;11.64;71.53;100422.91;5085778;28;20795;-50
2023/03/22 08:32:33;;;;;;;7.80;2.17;;;;;;;11.57;73.04;100392.69;5082081;28;20044;-51
2023/03/22 08:35:03;;;;;;;12.43;2.15;;;;;;;11.62;71.95;100405.44;5078722;28;20635;-49
2023/03/22 08:37:30;;;;;;;11.27;2.10;;;;;;;11.68;71.79;100399.47;5099946;28;20048;-51
2023/03/22 08:39:59;;;;;;;10.45;2.30;;;;;;;11.71;71.96;100407.94;5071459;28;26147;-49
2023/03/22 08:42:35;;;;;;;9.32;2.38;;;;;;;11.71;71.67;100402.63;5090588;28;20063;-51
2023/03/22 08:45:03;;;;;;;11.43;2.50;;;;;;;11.76;71.12;100410.06;5065539;28;20048;-51
2023/03/22 08:47:32;;;;;;;10.07;2.08;;;;;;;11.71;71.27;100402.63;5091436;28;20560;-52
2023/03/22 08:50:02;;;;;;;10.32;2.20;;;;;;;11.74;70.58;100400.63;5073508;28;20050;-52
2023/03/22 08:52:39;;;;;;;13.23;2.17;;;;;;;11.79;71.37;100400.91;5087283;28;20047;-52
2023/03/22 08:55:16;;;;;;;10.07;2.15;;;;;;;11.99;69.60;100399.56;5071735;28;20623;-53
2023/03/22 08:58:03;;;;;;;18.83;2.35;;;;;;;12.13;68.48;100395.34;5079418;28;20044;-53
2023/03/22 09:00:40;;;;;;;9.05;1.98;;;;;;;12.18;67.72;100392.19;5091245;28;20138;-54
2023/03/22 09:03:23;;;;;;;8.50;2.00;;;;;;;12.27;66.99;100415.91;5098136;28;20341;-52
2023/03/22 09:05:50;;;;;;;11.40;2.22;;;;;;;12.47;66.47;100400.34;5085592;28;20062;-54
2023/03/22 09:08:19;;;;;;;7.82;1.92;;;;;;;12.69;65.02;100400.56;5078740;28;20043;-53
2023/03/22 09:10:51;;;;;;;14.40;2.00;;;;;;;12.89;63.24;100395.59;5096488;28;20549;-57
2023/03/22 09:13:21;;;;;;;11.77;2.05;;;;;;;12.92;61.94;100405.09;5075178;28;20101;-52
2023/03/22 09:15:54;;;;;;;11.00;2.30;;;;;;;13.10;61.54;100396.75;5096113;28;20056;-52
2023/03/22 09:18:26;;;;;;;12.18;2.28;;;;;;;13.06;61.64;100396.28;5073718;28;20040;-53
2023/03/22 09:20:57;;;;;;;6.43;1.95;;;;;;;13.16;63.33;100414.72;5093725;28;20097;-53
2023/03/22 09:23:31;;;;;;;8.15;1.80;;;;;;;13.23;64.30;100394.34;5092063;28;20035;-51
2023/03/22 09:26:00;;;;;;;8.65;2.00;;;;;;;13.44;61.50;100397.19;5080177;28;20439;-52
2023/03/22 09:28:28;;;;;;;11.48;2.10;;;;;;;13.66;60.50;100391.97;5072991;28;20127;-55
2023/03/22 09:31:01;;;;;;;18.80;2.58;;;;;;;13.40;61.02;100393.19;5074738;28;20055;-53
2023/03/22 09:33:28;;;;;;;8.63;2.10;;;;;;;13.35;60.99;100387.63;5080611;28;20040;-50
2023/03/22 09:35:55;;;;;;;11.18;2.30;;;;;;;13.11;61.64;100385.13;5099156;27;20044;-52
2023/03/22 09:38:23;;;;;;;9.40;2.05;;;;;;;12.94;60.75;100382.59;5069969;28;20512;-51
2023/03/22 09:41:02;;;;;;;8.73;2.05;;;;;;;12.61;61.74;100380.16;5092626;28;20036;-54
2023/03/22 09:43:37;;;;;;;9.75;2.13;;;;;;;12.43;63.35;100387.59;5088484;28;20079;-51
2023/03/22 09:46:11;;;;;;;19.67;3.38;;;;;;;12.39;63.36;100396.94;5084808;28;20052;-54
2023/03/22 09:48:41;;;;;;;9.15;2.13;;;;;;;12.42;63.89;100401.88;5091420;28;20048;-55
2023/03/22 09:51:27;;;;;;;9.30;2.00;;;;;;;13.43;60.23;100400.03;5091781;28;20048;-53
2023/03/22 09:53:55;;;;;;;10.73;2.30;;;;;;;14.32;58.05;100391.19;5089404;28;20536;-50
2023/03/22 09:56:26;;;;;;;8.55;1.95;;;;;;;14.06;58.22;100381.00;5092565;28;20048;-50
2023/03/22 09:59:20;;;;;;;10.73;2.20;;;;;;;13.83;58.91;100379.28;5087322;28;20055;-53
2023/03/22 10:01:53;;;;;;;12.77;2.65;;;;;;;14.10;58.55;100388.47;5091933;28;20131;-53
2023/03/22 10:07:33;;;;;;;9.95;2.10;;;;;;;13.54;58.67;100372.94;5149759;27;20369;-50
2023/03/22 10:10:16;;;;;;;9.40;2.30;;;;;;;13.23;60.08;100376.53;5130720;28;20100;-52
2023/03/22 10:15:31;;;;;;;10.95;2.20;;;;;;;13.14;60.49;100364.28;5110062;27;20358;-50
2023/03/22 10:18:02;;;;;;;9.95;2.10;;;;;;;13.16;61.80;100369.44;5105822;28;20562;-52
2023/03/22 10:20:49;;;;;;;6.97;2.20;;;;;;;13.23;60.49;100367.72;5109864;28;20508;-50
2023/03/22 10:23:24;;;;;;;13.55;2.38;;;;;;;13.40;60.14;100357.75;5106513;28;20036;-52
2023/03/22 10:25:51;;;;;;;9.93;2.20;;;;;;;13.72;59.27;100367.25;5108461;28;20119;-51
2023/03/22 10:28:27;;;;;;;11.43;2.00;;;;;;;14.15;58.52;100369.22;5082409;28;20052;-53
2023/03/22 10:30:56;;;;;;;12.63;2.40;;;;;;;14.02;58.58;100361.88;5079299;28;20132;-52
2023/03/22 10:33:32;;;;;;;9.18;2.00;;;;;;;13.78;58.49;100373.69;5081931;28;20105;-53
2023/03/22 10:36:01;;;;;;;13.10;2.28;;;;;;;13.58;57.84;100360.88;5101737;28;20042;-54
2023/03/22 10:38:30;;;;;;;12.55;2.20;;;;;;;13.70;59.59;100361.28;5078017;28;20430;-53
2023/03/22 10:40:58;;;;;;;12.27;3.28;;;;;;;13.55;59.86;100363.94;5081633;28;20052;-52
2023/03/22 10:43:36;;;;;;;10.60;2.00;;;;;;;13.57;60.03;100358.41;5079865;28;20113;-50
2023/03/22 10:46:08;;;;;;;11.10;2.33;;;;;;;13.46;59.86;100367.66;5080935;28;20037;-51
2023/03/22 10:48:39;;;;;;;6.90;1.90;;;;;;;13.67;59.77;100364.28;5080975;28;20105;-53
2023/03/22 10:51:14;;;;;;;8.88;2.00;;;;;;;13.44;59.25;100367.03;5085519;28;20060;-53
2023/03/22 10:53:46;;;;;;;9.82;1.88;;;;;;;13.43;59.14;100366.19;5076094;28;20400;-54
2023/03/22 10:56:17;;;;;;;9.68;1.92;;;;;;;13.33;59.01;100373.63;5084851;28;20045;-51
2023/03/22 10:58:45;;;;;;;11.48;2.13;;;;;;;13.07;59.97;100369.50;5081219;28;20048;-54
2023/03/22 11:01:15;;;;;;;7.55;1.60;;;;;;;13.19;59.61;100363.75;5079470;28;20044;-52
2023/03/22 11:03:49;;;;;;;15.13;3.60;;;;;;;13.13;59.24;100359.94;5080519;28;20034;-49
2023/03/22 11:06:18;;;;;;;12.88;3.25;;;;;;;13.21;59.51;100365.22;5082332;28;20508;-48
2023/03/22 11:08:57;;;;;;;11.45;3.17;;;;;;;13.24;58.92;100370.19;5083473;28;20117;-55
2023/03/22 11:11:28;;;;;;;8.45;1.90;;;;;;;13.05;59.70;100379.50;5079699;28;20052;-49
2023/03/22 11:14:04;;;;;;;8.63;2.00;;;;;;;12.87;59.27;100365.66;5080482;28;20129;-50
2023/03/22 11:16:39;;;;;;;4.70;1.77;;;;;;;12.90;59.31;100375.97;5074758;28;20043;-51
2023/03/22 11:19:14;;;;;;;9.25;1.90;;;;;;;12.82;60.56;100384.00;5071442;28;20073;-49
2023/03/22 11:21:42;;;;;;;9.43;2.20;;;;;;;12.72;60.91;100368.28;5094278;28;20075;-50
2023/03/22 11:24:12;;;;;;;8.48;2.03;;;;;;;12.69;61.70;100363.28;5077607;28;20405;-50
2023/03/22 11:26:40;;;;;;;8.60;2.38;;;;;;;12.77;61.96;100365.91;5069927;28;20048;-50
2023/03/22 11:29:13;;;;;;;10.15;2.40;;;;;;;12.85;61.72;100365.84;5064378;28;20123;-49
2023/03/22 11:31:51;;;;;;;8.25;1.90;;;;;;;12.85;61.12;100365.03;5067296;28;20044;-49
2023/03/22 11:34:25;;;;;;;6.55;1.70;;;;;;;12.79;61.03;100363.09;5063971;28;20121;-50
2023/03/22 11:36:59;;;;;;;8.85;2.10;;;;;;;12.74;61.47;100360.94;5071851;28;20044;-52
2023/03/22 11:39:28;;;;;;;9.73;2.05;;;;;;;12.78;61.12;100369.41;5070524;28;20171;-52
2023/03/22 11:42:00;;;;;;;8.18;2.05;;;;;;;12.80;61.95;100357.56;5072476;28;20072;-50
2023/03/22 11:44:32;;;;;;;5.35;1.70;;;;;;;12.84;61.64;100361.53;5069535;28;20064;-54
2023/03/22 11:47:02;;;;;;;12.98;1.92;;;;;;;12.89;59.97;100362.84;5069660;28;20045;-52
2023/03/22 11:52:18;;;;;;;10.60;2.28;;;;;;;13.02;59.79;100355.91;5104222;27;20893;-51
2023/03/22 11:54:46;;;;;;;11.30;2.38;;;;;;;13.10;59.97;100339.03;5076685;28;20393;-53
2023/03/22 11:57:17;;;;;;;8.05;2.20;;;;;;;13.14;59.37;100350.97;5086859;28;20055;-52
2023/03/22 11:59:47;;;;;;;;;;;;;;;13.08;60.21;100343.72;5083612;28;20501;-49
2023/03/22 12:05:00;;;;;;;7.85;1.90;;;;;;;13.02;59.12;100345.25;5088301;27;20409;-50
2023/03/22 12:07:30;;;;;;;9.25;2.33;;;;;;;12.97;59.67;100338.78;5097194;28;20128;-51